sensor_id;sensor_type;location;lat;lon;timestamp;P1;durP1;ratioP1;P2;durP2;ratioP2
64011;SDS011;50211;52.768;12.124;2023-07-28T00:01:14;8.90;;;3.38;;
64011;SDS011;50211;52.768;12.124;2023-07-28T00:03:39;8.88;;;3.97;;
64011;SDS011;50211;52.768;12.124;2023-07-28T00:06:05;6.85;;;3.50;;
64011;SDS011;50211;52.768;12.124;2023-07-28T00:08:30;5.63;;;3.20;;
64011;SDS011;50211;52.768;12.124;2023-07-28T00:10:56;6.95;;;3.75;;
64011;SDS011;50211;52.768;12.124;2023-07-28T00:13:21;9.75;;;4.32;;
64011;SDS011;50211;52.768;12.124;2023-07-28T00:15:47;5.88;;;3.10;;
64011;SDS011;50211;52.768;12.124;2023-07-28T00:18:12;5.03;;;3.30;;
64011;SDS011;50211;52.768;12.124;2023-07-28T00:20:38;5.85;;;3.28;;
64011;SDS011;50211;52.768;12.124;2023-07-28T00:23:03;5.72;;;3.72;;
64011;SDS011;50211;52.768;12.124;2023-07-28T00:25:29;5.60;;;3.60;;
64011;SDS011;50211;52.768;12.124;2023-07-28T00:27:54;3.88;;;2.72;;
64011;SDS011;50211;52.768;12.124;2023-07-28T00:30:20;4.45;;;3.08;;
64011;SDS011;50211;52.768;12.124;2023-07-28T00:32:46;7.32;;;3.05;;
64011;SDS011;50211;52.768;12.124;2023-07-28T00:35:12;3.65;;;2.80;;
64011;SDS011;50211;52.768;12.124;2023-07-28T00:37:37;4.88;;;2.80;;
64011;SDS011;50211;52.768;12.124;2023-07-28T00:40:03;5.72;;;2.63;;
64011;SDS011;50211;52.768;12.124;2023-07-28T00:42:29;7.18;;;2.75;;
64011;SDS011;50211;52.768;12.124;2023-07-28T00:44:55;6.55;;;2.50;;
64011;SDS011;50211;52.768;12.124;2023-07-28T00:47:20;4.03;;;2.58;;
64011;SDS011;50211;52.768;12.124;2023-07-28T00:49:46;4.65;;;2.78;;
64011;SDS011;50211;52.768;12.124;2023-07-28T00:52:12;5.78;;;2.47;;
64011;SDS011;50211;52.768;12.124;2023-07-28T00:54:37;5.43;;;2.42;;
64011;SDS011;50211;52.768;12.124;2023-07-28T00:57:03;4.95;;;2.35;;
64011;SDS011;50211;52.768;12.124;2023-07-28T00:59:30;7.13;;;2.45;;
64011;SDS011;50211;52.768;12.124;2023-07-28T01:01:56;5.63;;;2.45;;
64011;SDS011;50211;52.768;12.124;2023-07-28T01:04:21;6.82;;;2.95;;
64011;SDS011;50211;52.768;12.124;2023-07-28T01:06:56;3.78;;;2.50;;
64011;SDS011;50211;52.768;12.124;2023-07-28T01:09:50;4.70;;;2.85;;
64011;SDS011;50211;52.768;12.124;2023-07-28T01:12:22;5.38;;;2.50;;
64011;SDS011;50211;52.768;12.124;2023-07-28T01:14:49;4.38;;;2.55;;
64011;SDS011;50211;52.768;12.124;2023-07-28T01:17:14;5.22;;;2.40;;
64011;SDS011;50211;52.768;12.124;2023-07-28T01:19:40;3.17;;;2.40;;
64011;SDS011;50211;52.768;12.124;2023-07-28T01:25:08;4.53;;;2.67;;
64011;SDS011;50211;52.768;12.124;2023-07-28T01:27:53;4.07;;;2.88;;
64011;SDS011;50211;52.768;12.124;2023-07-28T01:30:20;4.55;;;2.95;;
64011;SDS011;50211;52.768;12.124;2023-07-28T01:32:46;4.95;;;2.65;;
64011;SDS011;50211;52.768;12.124;2023-07-28T01:35:12;5.10;;;2.85;;
64011;SDS011;50211;52.768;12.124;2023-07-28T01:37:38;4.55;;;3.17;;
64011;SDS011;50211;52.768;12.124;2023-07-28T01:40:03;4.50;;;3.17;;
64011;SDS011;50211;52.768;12.124;2023-07-28T01:42:29;5.63;;;3.28;;
64011;SDS011;50211;52.768;12.124;2023-07-28T01:44:55;8.63;;;3.70;;
64011;SDS011;50211;52.768;12.124;2023-07-28T01:47:20;11.82;;;4.13;;
64011;SDS011;50211;52.768;12.124;2023-07-28T01:49:46;5.00;;;3.53;;
64011;SDS011;50211;52.768;12.124;2023-07-28T01:52:11;6.07;;;3.58;;
64011;SDS011;50211;52.768;12.124;2023-07-28T01:54:37;6.60;;;4.30;;
64011;SDS011;50211;52.768;12.124;2023-07-28T01:57:02;8.68;;;4.15;;
64011;SDS011;50211;52.768;12.124;2023-07-28T01:59:28;6.07;;;3.92;;
64011;SDS011;50211;52.768;12.124;2023-07-28T02:01:53;8.73;;;4.43;;
64011;SDS011;50211;52.768;12.124;2023-07-28T02:04:19;7.93;;;4.28;;
64011;SDS011;50211;52.768;12.124;2023-07-28T02:06:44;11.70;;;5.05;;
64011;SDS011;50211;52.768;12.124;2023-07-28T02:09:10;8.43;;;4.32;;
64011;SDS011;50211;52.768;12.124;2023-07-28T02:11:35;6.95;;;4.00;;
64011;SDS011;50211;52.768;12.124;2023-07-28T02:14:01;8.88;;;5.03;;
64011;SDS011;50211;52.768;12.124;2023-07-28T02:16:26;6.53;;;4.82;;
64011;SDS011;50211;52.768;12.124;2023-07-28T02:18:53;7.38;;;4.45;;
64011;SDS011;50211;52.768;12.124;2023-07-28T02:21:19;8.63;;;4.90;;
64011;SDS011;50211;52.768;12.124;2023-07-28T02:23:44;5.90;;;4.20;;
64011;SDS011;50211;52.768;12.124;2023-07-28T02:26:10;6.57;;;4.30;;
64011;SDS011;50211;52.768;12.124;2023-07-28T02:28:36;5.60;;;4.15;;
64011;SDS011;50211;52.768;12.124;2023-07-28T02:31:01;7.00;;;4.88;;
64011;SDS011;50211;52.768;12.124;2023-07-28T02:33:27;7.75;;;4.18;;
64011;SDS011;50211;52.768;12.124;2023-07-28T02:35:54;7.93;;;4.15;;
64011;SDS011;50211;52.768;12.124;2023-07-28T02:38:21;7.53;;;4.22;;
64011;SDS011;50211;52.768;12.124;2023-07-28T02:40:46;5.30;;;4.10;;
64011;SDS011;50211;52.768;12.124;2023-07-28T02:43:12;6.15;;;4.22;;
64011;SDS011;50211;52.768;12.124;2023-07-28T02:45:37;8.93;;;5.07;;
64011;SDS011;50211;52.768;12.124;2023-07-28T02:48:03;6.68;;;4.35;;
64011;SDS011;50211;52.768;12.124;2023-07-28T02:50:28;8.02;;;5.25;;
64011;SDS011;50211;52.768;12.124;2023-07-28T02:52:54;8.73;;;5.03;;
64011;SDS011;50211;52.768;12.124;2023-07-28T02:55:19;10.07;;;4.72;;
64011;SDS011;50211;52.768;12.124;2023-07-28T02:57:45;10.00;;;5.28;;
64011;SDS011;50211;52.768;12.124;2023-07-28T03:00:10;8.35;;;4.07;;
64011;SDS011;50211;52.768;12.124;2023-07-28T03:02:36;11.10;;;5.45;;
64011;SDS011;50211;52.768;12.124;2023-07-28T03:05:02;9.02;;;4.90;;
64011;SDS011;50211;52.768;12.124;2023-07-28T03:07:27;7.45;;;4.50;;
64011;SDS011;50211;52.768;12.124;2023-07-28T03:09:53;8.38;;;4.40;;
64011;SDS011;50211;52.768;12.124;2023-07-28T03:12:18;10.27;;;4.63;;
64011;SDS011;50211;52.768;12.124;2023-07-28T03:14:44;7.40;;;4.88;;
64011;SDS011;50211;52.768;12.124;2023-07-28T03:17:09;9.70;;;5.53;;
64011;SDS011;50211;52.768;12.124;2023-07-28T03:19:35;8.13;;;4.25;;
64011;SDS011;50211;52.768;12.124;2023-07-28T03:22:00;9.05;;;4.72;;
64011;SDS011;50211;52.768;12.124;2023-07-28T03:24:26;7.18;;;4.70;;
64011;SDS011;50211;52.768;12.124;2023-07-28T03:26:51;7.93;;;5.35;;
64011;SDS011;50211;52.768;12.124;2023-07-28T03:29:17;8.60;;;5.00;;
64011;SDS011;50211;52.768;12.124;2023-07-28T03:31:43;7.72;;;5.00;;
64011;SDS011;50211;52.768;12.124;2023-07-28T03:34:09;9.00;;;5.38;;
64011;SDS011;50211;52.768;12.124;2023-07-28T03:36:34;8.30;;;5.90;;
64011;SDS011;50211;52.768;12.124;2023-07-28T03:39:00;7.70;;;5.30;;
64011;SDS011;50211;52.768;12.124;2023-07-28T03:41:25;7.72;;;4.95;;
64011;SDS011;50211;52.768;12.124;2023-07-28T03:43:51;8.35;;;5.00;;
64011;SDS011;50211;52.768;12.124;2023-07-28T03:46:16;8.52;;;5.85;;
64011;SDS011;50211;52.768;12.124;2023-07-28T03:48:42;7.18;;;4.97;;
64011;SDS011;50211;52.768;12.124;2023-07-28T03:51:07;5.95;;;4.85;;
64011;SDS011;50211;52.768;12.124;2023-07-28T03:53:32;6.82;;;4.97;;
64011;SDS011;50211;52.768;12.124;2023-07-28T03:56:00;7.57;;;4.68;;
64011;SDS011;50211;52.768;12.124;2023-07-28T03:58:26;20.98;;;5.63;;
64011;SDS011;50211;52.768;12.124;2023-07-28T04:00:52;7.28;;;4.88;;
64011;SDS011;50211;52.768;12.124;2023-07-28T04:03:18;9.07;;;5.22;;
64011;SDS011;50211;52.768;12.124;2023-07-28T04:05:44;10.30;;;5.18;;
64011;SDS011;50211;52.768;12.124;2023-07-28T04:08:09;6.88;;;4.78;;
64011;SDS011;50211;52.768;12.124;2023-07-28T04:10:35;7.95;;;4.57;;
64011;SDS011;50211;52.768;12.124;2023-07-28T04:13:00;6.55;;;4.85;;
64011;SDS011;50211;52.768;12.124;2023-07-28T04:15:26;6.28;;;4.28;;
64011;SDS011;50211;52.768;12.124;2023-07-28T04:17:51;8.75;;;5.45;;
64011;SDS011;50211;52.768;12.124;2023-07-28T04:20:17;8.45;;;4.40;;
64011;SDS011;50211;52.768;12.124;2023-07-28T04:22:42;6.50;;;4.25;;
64011;SDS011;50211;52.768;12.124;2023-07-28T04:25:08;6.88;;;4.35;;
64011;SDS011;50211;52.768;12.124;2023-07-28T04:27:33;6.00;;;4.28;;
64011;SDS011;50211;52.768;12.124;2023-07-28T04:29:59;5.93;;;3.95;;
64011;SDS011;50211;52.768;12.124;2023-07-28T04:32:24;7.70;;;5.00;;
64011;SDS011;50211;52.768;12.124;2023-07-28T04:34:51;7.93;;;4.00;;
64011;SDS011;50211;52.768;12.124;2023-07-28T04:37:16;7.70;;;4.70;;
64011;SDS011;50211;52.768;12.124;2023-07-28T04:39:42;5.03;;;3.90;;
64011;SDS011;50211;52.768;12.124;2023-07-28T04:42:08;5.70;;;4.30;;
64011;SDS011;50211;52.768;12.124;2023-07-28T04:44:34;5.57;;;4.18;;
64011;SDS011;50211;52.768;12.124;2023-07-28T04:46:59;5.10;;;4.20;;
64011;SDS011;50211;52.768;12.124;2023-07-28T04:49:25;6.45;;;4.15;;
64011;SDS011;50211;52.768;12.124;2023-07-28T04:51:50;5.35;;;3.75;;
64011;SDS011;50211;52.768;12.124;2023-07-28T04:54:15;6.70;;;4.13;;
64011;SDS011;50211;52.768;12.124;2023-07-28T04:56:41;6.57;;;4.10;;
64011;SDS011;50211;52.768;12.124;2023-07-28T04:59:06;7.40;;;4.22;;
64011;SDS011;50211;52.768;12.124;2023-07-28T05:01:32;4.72;;;3.45;;
64011;SDS011;50211;52.768;12.124;2023-07-28T05:03:58;3.78;;;2.80;;
64011;SDS011;50211;52.768;12.124;2023-07-28T05:06:24;4.47;;;3.08;;
64011;SDS011;50211;52.768;12.124;2023-07-28T05:08:49;4.28;;;3.25;;
64011;SDS011;50211;52.768;12.124;2023-07-28T05:11:15;3.17;;;2.70;;
64011;SDS011;50211;52.768;12.124;2023-07-28T05:13:40;4.35;;;2.97;;
64011;SDS011;50211;52.768;12.124;2023-07-28T05:16:06;5.03;;;2.80;;
64011;SDS011;50211;52.768;12.124;2023-07-28T05:18:31;5.10;;;2.92;;
64011;SDS011;50211;52.768;12.124;2023-07-28T05:20:56;3.55;;;2.85;;
64011;SDS011;50211;52.768;12.124;2023-07-28T05:23:22;3.03;;;2.70;;
64011;SDS011;50211;52.768;12.124;2023-07-28T05:25:47;3.50;;;2.45;;
64011;SDS011;50211;52.768;12.124;2023-07-28T05:28:13;3.20;;;2.42;;
64011;SDS011;50211;52.768;12.124;2023-07-28T05:30:38;4.25;;;2.85;;
64011;SDS011;50211;52.768;12.124;2023-07-28T05:33:04;4.50;;;2.60;;
64011;SDS011;50211;52.768;12.124;2023-07-28T05:35:29;3.45;;;3.13;;
64011;SDS011;50211;52.768;12.124;2023-07-28T05:37:55;3.22;;;2.58;;
64011;SDS011;50211;52.768;12.124;2023-07-28T05:40:21;2.90;;;2.25;;
64011;SDS011;50211;52.768;12.124;2023-07-28T05:42:46;3.05;;;2.13;;
64011;SDS011;50211;52.768;12.124;2023-07-28T05:45:12;2.72;;;2.38;;
64011;SDS011;50211;52.768;12.124;2023-07-28T05:47:37;2.10;;;1.90;;
64011;SDS011;50211;52.768;12.124;2023-07-28T05:50:03;4.63;;;2.00;;
64011;SDS011;50211;52.768;12.124;2023-07-28T05:52:29;1.90;;;1.60;;
64011;SDS011;50211;52.768;12.124;2023-07-28T05:54:55;2.05;;;1.85;;
64011;SDS011;50211;52.768;12.124;2023-07-28T05:57:20;2.83;;;1.80;;
64011;SDS011;50211;52.768;12.124;2023-07-28T05:59:46;3.33;;;2.15;;
64011;SDS011;50211;52.768;12.124;2023-07-28T06:02:11;2.45;;;2.05;;
64011;SDS011;50211;52.768;12.124;2023-07-28T06:04:37;3.38;;;2.55;;
64011;SDS011;50211;52.768;12.124;2023-07-28T06:07:02;2.85;;;1.85;;
64011;SDS011;50211;52.768;12.124;2023-07-28T06:09:28;4.35;;;1.75;;
64011;SDS011;50211;52.768;12.124;2023-07-28T06:11:53;2.65;;;1.65;;
64011;SDS011;50211;52.768;12.124;2023-07-28T06:14:19;2.80;;;1.80;;
64011;SDS011;50211;52.768;12.124;2023-07-28T06:16:44;3.30;;;1.83;;
64011;SDS011;50211;52.768;12.124;2023-07-28T06:19:10;2.33;;;1.40;;
64011;SDS011;50211;52.768;12.124;2023-07-28T06:21:36;3.70;;;1.55;;
64011;SDS011;50211;52.768;12.124;2023-07-28T06:24:01;2.03;;;1.63;;
64011;SDS011;50211;52.768;12.124;2023-07-28T06:26:27;3.40;;;1.85;;
64011;SDS011;50211;52.768;12.124;2023-07-28T06:28:52;1.90;;;1.70;;
64011;SDS011;50211;52.768;12.124;2023-07-28T06:31:18;1.80;;;1.70;;
64011;SDS011;50211;52.768;12.124;2023-07-28T06:33:43;6.15;;;1.70;;
64011;SDS011;50211;52.768;12.124;2023-07-28T06:36:09;1.42;;;1.27;;
64011;SDS011;50211;52.768;12.124;2023-07-28T06:38:34;2.35;;;1.58;;
64011;SDS011;50211;52.768;12.124;2023-07-28T06:41:00;2.42;;;1.70;;
64011;SDS011;50211;52.768;12.124;2023-07-28T06:43:26;2.03;;;1.58;;
64011;SDS011;50211;52.768;12.124;2023-07-28T06:45:52;1.50;;;1.40;;
64011;SDS011;50211;52.768;12.124;2023-07-28T06:48:18;2.38;;;1.67;;
64011;SDS011;50211;52.768;12.124;2023-07-28T06:50:43;3.00;;;1.40;;
64011;SDS011;50211;52.768;12.124;2023-07-28T06:53:09;9.77;;;1.70;;
64011;SDS011;50211;52.768;12.124;2023-07-28T06:55:34;4.85;;;1.52;;
64011;SDS011;50211;52.768;12.124;2023-07-28T06:58:00;6.97;;;2.13;;
64011;SDS011;50211;52.768;12.124;2023-07-28T07:00:25;2.83;;;1.70;;
64011;SDS011;50211;52.768;12.124;2023-07-28T07:02:51;2.47;;;1.27;;
64011;SDS011;50211;52.768;12.124;2023-07-28T07:05:16;1.45;;;1.17;;
64011;SDS011;50211;52.768;12.124;2023-07-28T07:07:42;1.35;;;1.25;;
64011;SDS011;50211;52.768;12.124;2023-07-28T07:10:08;3.17;;;1.17;;
64011;SDS011;50211;52.768;12.124;2023-07-28T07:12:34;2.92;;;1.55;;
64011;SDS011;50211;52.768;12.124;2023-07-28T07:14:59;1.42;;;1.33;;
64011;SDS011;50211;52.768;12.124;2023-07-28T07:17:25;1.23;;;1.13;;
64011;SDS011;50211;52.768;12.124;2023-07-28T07:19:51;2.47;;;1.83;;
64011;SDS011;50211;52.768;12.124;2023-07-28T07:22:16;1.38;;;1.27;;
64011;SDS011;50211;52.768;12.124;2023-07-28T07:24:42;1.80;;;1.42;;
64011;SDS011;50211;52.768;12.124;2023-07-28T07:27:08;1.38;;;1.27;;
64011;SDS011;50211;52.768;12.124;2023-07-28T07:29:35;2.45;;;1.30;;
64011;SDS011;50211;52.768;12.124;2023-07-28T07:32:05;4.00;;;1.25;;
64011;SDS011;50211;52.768;12.124;2023-07-28T07:34:31;1.50;;;1.40;;
64011;SDS011;50211;52.768;12.124;2023-07-28T07:36:57;1.20;;;1.10;;
64011;SDS011;50211;52.768;12.124;2023-07-28T07:39:23;3.22;;;1.27;;
64011;SDS011;50211;52.768;12.124;2023-07-28T07:41:48;1.92;;;1.40;;
64011;SDS011;50211;52.768;12.124;2023-07-28T07:44:14;1.40;;;1.30;;
64011;SDS011;50211;52.768;12.124;2023-07-28T07:46:39;2.03;;;1.40;;
64011;SDS011;50211;52.768;12.124;2023-07-28T07:49:05;1.67;;;1.40;;
64011;SDS011;50211;52.768;12.124;2023-07-28T07:51:30;2.20;;;1.40;;
64011;SDS011;50211;52.768;12.124;2023-07-28T07:53:56;0.93;;;0.90;;
64011;SDS011;50211;52.768;12.124;2023-07-28T07:56:21;2.95;;;1.20;;
64011;SDS011;50211;52.768;12.124;2023-07-28T07:58:47;1.25;;;1.08;;
64011;SDS011;50211;52.768;12.124;2023-07-28T08:01:13;2.17;;;1.10;;
64011;SDS011;50211;52.768;12.124;2023-07-28T08:03:39;1.10;;;0.90;;
64011;SDS011;50211;52.768;12.124;2023-07-28T08:06:04;0.77;;;0.77;;
64011;SDS011;50211;52.768;12.124;2023-07-28T08:08:30;0.70;;;0.70;;
64011;SDS011;50211;52.768;12.124;2023-07-28T08:10:56;2.03;;;0.80;;
64011;SDS011;50211;52.768;12.124;2023-07-28T08:13:21;1.05;;;0.95;;
64011;SDS011;50211;52.768;12.124;2023-07-28T08:15:47;1.10;;;1.00;;
64011;SDS011;50211;52.768;12.124;2023-07-28T08:18:13;3.45;;;1.30;;
64011;SDS011;50211;52.768;12.124;2023-07-28T08:20:38;1.30;;;1.20;;
64011;SDS011;50211;52.768;12.124;2023-07-28T08:23:04;3.38;;;1.20;;
64011;SDS011;50211;52.768;12.124;2023-07-28T08:25:29;2.25;;;1.10;;
64011;SDS011;50211;52.768;12.124;2023-07-28T08:27:55;2.50;;;1.30;;
64011;SDS011;50211;52.768;12.124;2023-07-28T08:30:20;2.63;;;1.45;;
64011;SDS011;50211;52.768;12.124;2023-07-28T08:32:46;2.42;;;1.60;;
64011;SDS011;50211;52.768;12.124;2023-07-28T08:35:11;3.63;;;1.52;;
64011;SDS011;50211;52.768;12.124;2023-07-28T08:37:37;1.27;;;1.08;;
64011;SDS011;50211;52.768;12.124;2023-07-28T08:40:03;2.10;;;1.33;;
64011;SDS011;50211;52.768;12.124;2023-07-28T08:42:30;1.95;;;1.02;;
64011;SDS011;50211;52.768;12.124;2023-07-28T08:45:00;1.30;;;1.17;;
64011;SDS011;50211;52.768;12.124;2023-07-28T08:47:26;1.13;;;0.95;;
64011;SDS011;50211;52.768;12.124;2023-07-28T08:49:51;0.88;;;0.85;;
64011;SDS011;50211;52.768;12.124;2023-07-28T08:52:17;3.92;;;0.98;;
64011;SDS011;50211;52.768;12.124;2023-07-28T08:54:43;1.27;;;0.98;;
64011;SDS011;50211;52.768;12.124;2023-07-28T08:57:08;1.35;;;0.55;;
64011;SDS011;50211;52.768;12.124;2023-07-28T08:59:34;0.88;;;0.70;;
64011;SDS011;50211;52.768;12.124;2023-07-28T09:02:01;1.45;;;0.60;;
64011;SDS011;50211;52.768;12.124;2023-07-28T09:04:26;0.50;;;0.50;;
64011;SDS011;50211;52.768;12.124;2023-07-28T09:06:53;0.52;;;0.52;;
64011;SDS011;50211;52.768;12.124;2023-07-28T09:09:20;0.52;;;0.52;;
64011;SDS011;50211;52.768;12.124;2023-07-28T09:11:53;0.88;;;0.88;;
64011;SDS011;50211;52.768;12.124;2023-07-28T09:14:19;1.30;;;0.88;;
64011;SDS011;50211;52.768;12.124;2023-07-28T09:16:48;1.13;;;1.02;;
64011;SDS011;50211;52.768;12.124;2023-07-28T09:19:14;0.80;;;0.80;;
64011;SDS011;50211;52.768;12.124;2023-07-28T09:21:41;1.70;;;1.20;;
64011;SDS011;50211;52.768;12.124;2023-07-28T09:24:10;3.42;;;1.20;;
64011;SDS011;50211;52.768;12.124;2023-07-28T09:29:10;1.55;;;1.25;;
64011;SDS011;50211;52.768;12.124;2023-07-28T09:31:39;1.25;;;1.15;;
64011;SDS011;50211;52.768;12.124;2023-07-28T09:34:08;1.10;;;1.00;;
64011;SDS011;50211;52.768;12.124;2023-07-28T09:36:35;1.40;;;1.00;;
64011;SDS011;50211;52.768;12.124;2023-07-28T09:39:03;2.25;;;1.00;;
64011;SDS011;50211;52.768;12.124;2023-07-28T09:41:29;1.33;;;1.13;;
64011;SDS011;50211;52.768;12.124;2023-07-28T09:43:55;1.92;;;1.40;;
64011;SDS011;50211;52.768;12.124;2023-07-28T09:46:22;2.65;;;1.60;;
64011;SDS011;50211;52.768;12.124;2023-07-28T09:48:49;2.42;;;1.30;;
64011;SDS011;50211;52.768;12.124;2023-07-28T09:51:20;1.10;;;1.00;;
64011;SDS011;50211;52.768;12.124;2023-07-28T09:53:53;4.65;;;1.30;;
64011;SDS011;50211;52.768;12.124;2023-07-28T09:56:29;3.95;;;1.50;;
64011;SDS011;50211;52.768;12.124;2023-07-28T09:58:56;2.42;;;1.58;;
64011;SDS011;50211;52.768;12.124;2023-07-28T10:01:23;4.03;;;1.88;;
64011;SDS011;50211;52.768;12.124;2023-07-28T10:03:49;2.17;;;1.40;;
64011;SDS011;50211;52.768;12.124;2023-07-28T10:06:15;2.63;;;1.52;;
64011;SDS011;50211;52.768;12.124;2023-07-28T10:08:42;2.70;;;1.80;;
64011;SDS011;50211;52.768;12.124;2023-07-28T10:11:09;1.95;;;1.63;;
64011;SDS011;50211;52.768;12.124;2023-07-28T10:13:40;3.63;;;2.17;;
64011;SDS011;50211;52.768;12.124;2023-07-28T10:16:09;4.38;;;2.13;;
64011;SDS011;50211;52.768;12.124;2023-07-28T10:18:35;3.42;;;2.10;;
64011;SDS011;50211;52.768;12.124;2023-07-28T10:21:08;3.78;;;2.50;;
64011;SDS011;50211;52.768;12.124;2023-07-28T10:23:38;2.70;;;1.90;;
64011;SDS011;50211;52.768;12.124;2023-07-28T10:26:04;2.90;;;1.58;;
64011;SDS011;50211;52.768;12.124;2023-07-28T10:28:38;1.92;;;1.30;;
64011;SDS011;50211;52.768;12.124;2023-07-28T10:31:06;2.95;;;1.30;;
64011;SDS011;50211;52.768;12.124;2023-07-28T10:33:44;1.95;;;1.52;;
64011;SDS011;50211;52.768;12.124;2023-07-28T10:41:38;1.73;;;1.30;;
64011;SDS011;50211;52.768;12.124;2023-07-28T10:44:07;3.58;;;1.90;;
64011;SDS011;50211;52.768;12.124;2023-07-28T10:46:34;1.75;;;1.40;;
64011;SDS011;50211;52.768;12.124;2023-07-28T10:49:04;2.53;;;1.38;;
64011;SDS011;50211;52.768;12.124;2023-07-28T10:51:30;1.55;;;1.40;;
64011;SDS011;50211;52.768;12.124;2023-07-28T10:53:58;3.55;;;1.40;;
64011;SDS011;50211;52.768;12.124;2023-07-28T10:56:25;1.45;;;1.25;;
64011;SDS011;50211;52.768;12.124;2023-07-28T10:58:57;1.85;;;1.50;;
64011;SDS011;50211;52.768;12.124;2023-07-28T11:01:30;1.75;;;1.25;;
64011;SDS011;50211;52.768;12.124;2023-07-28T11:04:05;2.42;;;1.40;;
64011;SDS011;50211;52.768;12.124;2023-07-28T11:06:32;1.50;;;1.40;;
64011;SDS011;50211;52.768;12.124;2023-07-28T11:08:57;2.50;;;1.60;;
64011;SDS011;50211;52.768;12.124;2023-07-28T11:11:23;1.60;;;1.50;;
64011;SDS011;50211;52.768;12.124;2023-07-28T11:13:48;1.60;;;1.50;;
64011;SDS011;50211;52.768;12.124;2023-07-28T11:16:14;2.35;;;2.00;;
64011;SDS011;50211;52.768;12.124;2023-07-28T11:18:39;2.70;;;2.50;;
64011;SDS011;50211;52.768;12.124;2023-07-28T11:21:05;2.22;;;1.85;;
64011;SDS011;50211;52.768;12.124;2023-07-28T11:23:30;2.05;;;1.70;;
64011;SDS011;50211;52.768;12.124;2023-07-28T11:25:56;3.33;;;1.60;;
64011;SDS011;50211;52.768;12.124;2023-07-28T11:28:21;6.20;;;2.03;;
64011;SDS011;50211;52.768;12.124;2023-07-28T11:30:47;2.35;;;1.83;;
64011;SDS011;50211;52.768;12.124;2023-07-28T11:33:12;3.60;;;2.25;;
64011;SDS011;50211;52.768;12.124;2023-07-28T11:35:39;5.25;;;2.25;;
64011;SDS011;50211;52.768;12.124;2023-07-28T11:38:05;4.78;;;1.90;;
64011;SDS011;50211;52.768;12.124;2023-07-28T11:40:32;2.17;;;1.98;;
64011;SDS011;50211;52.768;12.124;2023-07-28T11:42:58;1.65;;;1.55;;
64011;SDS011;50211;52.768;12.124;2023-07-28T11:45:24;2.10;;;1.88;;
64011;SDS011;50211;52.768;12.124;2023-07-28T11:50:26;2.95;;;2.10;;
64011;SDS011;50211;52.768;12.124;2023-07-28T11:52:54;1.65;;;1.55;;
64011;SDS011;50211;52.768;12.124;2023-07-28T11:55:21;2.15;;;1.50;;
64011;SDS011;50211;52.768;12.124;2023-07-28T11:57:47;3.13;;;1.42;;
64011;SDS011;50211;52.768;12.124;2023-07-28T12:00:14;2.80;;;1.40;;
64011;SDS011;50211;52.768;12.124;2023-07-28T12:02:42;2.25;;;1.42;;
64011;SDS011;50211;52.768;12.124;2023-07-28T12:05:12;2.28;;;1.70;;
64011;SDS011;50211;52.768;12.124;2023-07-28T12:07:39;3.45;;;1.50;;
64011;SDS011;50211;52.768;12.124;2023-07-28T12:10:05;2.03;;;1.67;;
64011;SDS011;50211;52.768;12.124;2023-07-28T12:12:46;2.83;;;1.30;;
64011;SDS011;50211;52.768;12.124;2023-07-28T12:15:28;2.78;;;1.50;;
64011;SDS011;50211;52.768;12.124;2023-07-28T12:18:00;1.45;;;1.35;;
64011;SDS011;50211;52.768;12.124;2023-07-28T12:20:26;1.33;;;1.23;;
64011;SDS011;50211;52.768;12.124;2023-07-28T12:22:52;2.75;;;1.40;;
64011;SDS011;50211;52.768;12.124;2023-07-28T12:25:17;1.40;;;1.30;;
64011;SDS011;50211;52.768;12.124;2023-07-28T12:27:43;1.88;;;1.40;;
64011;SDS011;50211;52.768;12.124;2023-07-28T12:30:09;1.60;;;1.42;;
64011;SDS011;50211;52.768;12.124;2023-07-28T12:32:35;4.50;;;1.67;;
64011;SDS011;50211;52.768;12.124;2023-07-28T12:35:01;1.88;;;1.60;;
64011;SDS011;50211;52.768;12.124;2023-07-28T12:37:26;2.85;;;2.10;;
64011;SDS011;50211;52.768;12.124;2023-07-28T12:39:52;2.28;;;1.55;;
64011;SDS011;50211;52.768;12.124;2023-07-28T12:42:17;1.77;;;1.67;;
64011;SDS011;50211;52.768;12.124;2023-07-28T12:44:43;2.47;;;1.80;;
64011;SDS011;50211;52.768;12.124;2023-07-28T12:47:08;2.10;;;1.90;;
64011;SDS011;50211;52.768;12.124;2023-07-28T12:49:34;1.67;;;1.58;;
64011;SDS011;50211;52.768;12.124;2023-07-28T12:52:00;2.42;;;1.92;;
64011;SDS011;50211;52.768;12.124;2023-07-28T12:54:27;2.03;;;1.92;;
64011;SDS011;50211;52.768;12.124;2023-07-28T12:56:53;2.97;;;1.95;;
64011;SDS011;50211;52.768;12.124;2023-07-28T12:59:19;3.35;;;1.77;;
64011;SDS011;50211;52.768;12.124;2023-07-28T13:01:45;2.60;;;2.33;;
64011;SDS011;50211;52.768;12.124;2023-07-28T13:04:11;1.95;;;1.70;;
64011;SDS011;50211;52.768;12.124;2023-07-28T13:06:36;2.05;;;1.90;;
64011;SDS011;50211;52.768;12.124;2023-07-28T13:09:02;1.90;;;1.80;;
64011;SDS011;50211;52.768;12.124;2023-07-28T13:11:28;2.15;;;1.95;;
64011;SDS011;50211;52.768;12.124;2023-07-28T13:13:54;3.30;;;2.10;;
64011;SDS011;50211;52.768;12.124;2023-07-28T13:16:19;3.67;;;2.10;;
64011;SDS011;50211;52.768;12.124;2023-07-28T13:18:45;2.25;;;2.08;;
64011;SDS011;50211;52.768;12.124;2023-07-28T13:21:10;3.45;;;2.17;;
64011;SDS011;50211;52.768;12.124;2023-07-28T13:23:36;3.22;;;2.08;;
64011;SDS011;50211;52.768;12.124;2023-07-28T13:26:02;1.92;;;1.80;;
64011;SDS011;50211;52.768;12.124;2023-07-28T13:28:29;2.28;;;2.08;;
64011;SDS011;50211;52.768;12.124;2023-07-28T13:30:55;3.45;;;2.33;;
64011;SDS011;50211;52.768;12.124;2023-07-28T13:33:20;2.58;;;2.38;;
64011;SDS011;50211;52.768;12.124;2023-07-28T13:35:46;13.48;;;5.15;;
64011;SDS011;50211;52.768;12.124;2023-07-28T13:38:11;10.75;;;3.78;;
64011;SDS011;50211;52.768;12.124;2023-07-28T13:40:37;2.45;;;2.25;;
64011;SDS011;50211;52.768;12.124;2023-07-28T13:43:02;1.92;;;1.83;;
64011;SDS011;50211;52.768;12.124;2023-07-28T13:45:28;3.38;;;2.22;;
64011;SDS011;50211;52.768;12.124;2023-07-28T13:47:54;3.08;;;2.30;;
64011;SDS011;50211;52.768;12.124;2023-07-28T13:50:19;1.77;;;1.63;;
64011;SDS011;50211;52.768;12.124;2023-07-28T13:52:45;2.03;;;1.70;;
64011;SDS011;50211;52.768;12.124;2023-07-28T13:55:10;1.80;;;1.70;;
64011;SDS011;50211;52.768;12.124;2023-07-28T13:57:36;2.10;;;1.90;;
64011;SDS011;50211;52.768;12.124;2023-07-28T14:00:02;2.00;;;1.80;;
64011;SDS011;50211;52.768;12.124;2023-07-28T14:02:28;1.52;;;1.42;;
64011;SDS011;50211;52.768;12.124;2023-07-28T14:04:53;1.65;;;1.30;;
64011;SDS011;50211;52.768;12.124;2023-07-28T14:07:19;1.60;;;1.50;;
64011;SDS011;50211;52.768;12.124;2023-07-28T14:09:45;1.33;;;1.23;;
64011;SDS011;50211;52.768;12.124;2023-07-28T14:12:10;1.23;;;1.13;;
64011;SDS011;50211;52.768;12.124;2023-07-28T14:14:36;2.53;;;1.45;;
64011;SDS011;50211;52.768;12.124;2023-07-28T14:17:01;2.90;;;1.42;;
64011;SDS011;50211;52.768;12.124;2023-07-28T14:19:27;1.67;;;1.13;;
64011;SDS011;50211;52.768;12.124;2023-07-28T14:21:52;1.33;;;1.23;;
64011;SDS011;50211;52.768;12.124;2023-07-28T14:24:18;1.40;;;1.30;;
64011;SDS011;50211;52.768;12.124;2023-07-28T14:26:43;2.40;;;1.30;;
64011;SDS011;50211;52.768;12.124;2023-07-28T14:29:09;1.50;;;1.40;;
64011;SDS011;50211;52.768;12.124;2023-07-28T14:31:34;2.83;;;1.70;;
64011;SDS011;50211;52.768;12.124;2023-07-28T14:34:00;2.90;;;1.50;;
64011;SDS011;50211;52.768;12.124;2023-07-28T14:36:25;2.30;;;1.63;;
64011;SDS011;50211;52.768;12.124;2023-07-28T14:38:51;3.20;;;1.50;;
64011;SDS011;50211;52.768;12.124;2023-07-28T14:41:16;0.95;;;0.90;;